sensor_id;sensor_type;location;lat;lon;timestamp;temperature;humidity
68051;DHT22;54839;51.364;7.246;2023-04-04T00:00:32;-0.10;99.90
68051;DHT22;54839;51.364;7.246;2023-04-04T00:02:58;-0.20;99.90
68051;DHT22;54839;51.364;7.246;2023-04-04T00:05:24;-0.30;99.90
68051;DHT22;54839;51.364;7.246;2023-04-04T00:07:49;-0.30;99.90
68051;DHT22;54839;51.364;7.246;2023-04-04T00:10:15;-0.30;99.90
68051;DHT22;54839;51.364;7.246;2023-04-04T00:12:42;-0.20;99.90
68051;DHT22;54839;51.364;7.246;2023-04-04T00:15:07;-0.20;99.90
68051;DHT22;54839;51.364;7.246;2023-04-04T00:17:33;-0.20;99.90
68051;DHT22;54839;51.364;7.246;2023-04-04T00:19:59;-0.30;99.90
68051;DHT22;54839;51.364;7.246;2023-04-04T00:22:24;-0.30;99.90
68051;DHT22;54839;51.364;7.246;2023-04-04T00:24:50;-0.30;99.90
68051;DHT22;54839;51.364;7.246;2023-04-04T00:27:16;-0.30;99.90
68051;DHT22;54839;51.364;7.246;2023-04-04T00:29:41;-0.40;99.90
68051;DHT22;54839;51.364;7.246;2023-04-04T00:32:07;-0.30;99.90
68051;DHT22;54839;51.364;7.246;2023-04-04T00:34:32;-0.40;99.90
68051;DHT22;54839;51.364;7.246;2023-04-04T00:37:00;-0.50;99.90
68051;DHT22;54839;51.364;7.246;2023-04-04T00:39:26;-0.40;99.90
68051;DHT22;54839;51.364;7.246;2023-04-04T00:41:51;-0.40;99.90
68051;DHT22;54839;51.364;7.246;2023-04-04T00:44:17;-0.40;99.90
68051;DHT22;54839;51.364;7.246;2023-04-04T00:46:43;-0.50;99.90
68051;DHT22;54839;51.364;7.246;2023-04-04T00:49:09;-0.50;99.90
68051;DHT22;54839;51.364;7.246;2023-04-04T00:51:34;-0.50;99.90
68051;DHT22;54839;51.364;7.246;2023-04-04T00:54:00;-0.40;99.90
68051;DHT22;54839;51.364;7.246;2023-04-04T00:56:27;-0.50;99.90
68051;DHT22;54839;51.364;7.246;2023-04-04T00:58:54;-0.50;99.90
68051;DHT22;54839;51.364;7.246;2023-04-04T01:01:19;-0.60;99.90
68051;DHT22;54839;51.364;7.246;2023-04-04T01:03:45;-0.60;99.90
68051;DHT22;54839;51.364;7.246;2023-04-04T01:06:11;-0.60;99.90
68051;DHT22;54839;51.364;7.246;2023-04-04T01:08:38;-0.70;99.90
68051;DHT22;54839;51.364;7.246;2023-04-04T01:11:05;-0.60;99.90
68051;DHT22;54839;51.364;7.246;2023-04-04T01:13:31;-0.70;99.90
68051;DHT22;54839;51.364;7.246;2023-04-04T01:15:58;-0.70;99.90
68051;DHT22;54839;51.364;7.246;2023-04-04T01:18:24;-0.80;99.90
68051;DHT22;54839;51.364;7.246;2023-04-04T01:21:00;-0.80;99.90
68051;DHT22;54839;51.364;7.246;2023-04-04T01:23:35;-0.90;99.90
68051;DHT22;54839;51.364;7.246;2023-04-04T01:26:06;-1.00;99.90
68051;DHT22;54839;51.364;7.246;2023-04-04T01:28:32;-1.00;99.90
68051;DHT22;54839;51.364;7.246;2023-04-04T01:31:00;-1.00;99.90
68051;DHT22;54839;51.364;7.246;2023-04-04T01:33:37;-1.00;99.90
68051;DHT22;54839;51.364;7.246;2023-04-04T01:36:11;-1.00;99.90
68051;DHT22;54839;51.364;7.246;2023-04-04T01:41:32;-1.00;99.90
68051;DHT22;54839;51.364;7.246;2023-04-04T01:43:59;-1.00;99.90
68051;DHT22;54839;51.364;7.246;2023-04-04T01:46:25;-1.00;99.90
68051;DHT22;54839;51.364;7.246;2023-04-04T01:48:51;-1.00;99.90
68051;DHT22;54839;51.364;7.246;2023-04-04T01:51:17;-1.10;99.90
68051;DHT22;54839;51.364;7.246;2023-04-04T01:53:42;-1.20;99.90
68051;DHT22;54839;51.364;7.246;2023-04-04T01:56:08;-1.20;99.90
68051;DHT22;54839;51.364;7.246;2023-04-04T01:58:34;-1.20;99.90
68051;DHT22;54839;51.364;7.246;2023-04-04T02:01:00;-1.20;99.90
68051;DHT22;54839;51.364;7.246;2023-04-04T02:03:25;-1.20;99.90
68051;DHT22;54839;51.364;7.246;2023-04-04T02:05:51;-1.10;99.90
68051;DHT22;54839;51.364;7.246;2023-04-04T02:08:17;-1.10;99.90
68051;DHT22;54839;51.364;7.246;2023-04-04T02:10:42;-1.10;99.90
68051;DHT22;54839;51.364;7.246;2023-04-04T02:13:08;-1.10;99.90
68051;DHT22;54839;51.364;7.246;2023-04-04T02:15:33;-1.20;99.90
68051;DHT22;54839;51.364;7.246;2023-04-04T02:17:59;-1.20;99.90
68051;DHT22;54839;51.364;7.246;2023-04-04T02:20:26;-1.20;99.90
68051;DHT22;54839;51.364;7.246;2023-04-04T02:22:55;-1.30;99.90
68051;DHT22;54839;51.364;7.246;2023-04-04T02:25:21;-1.30;99.90
68051;DHT22;54839;51.364;7.246;2023-04-04T02:27:47;-1.30;99.90
68051;DHT22;54839;51.364;7.246;2023-04-04T02:30:13;-1.40;99.90
68051;DHT22;54839;51.364;7.246;2023-04-04T02:32:39;-1.40;99.90
68051;DHT22;54839;51.364;7.246;2023-04-04T02:35:05;-1.50;99.90
68051;DHT22;54839;51.364;7.246;2023-04-04T02:37:30;-1.40;99.90
68051;DHT22;54839;51.364;7.246;2023-04-04T02:39:56;-1.50;99.90
68051;DHT22;54839;51.364;7.246;2023-04-04T02:42:21;-1.40;99.90
68051;DHT22;54839;51.364;7.246;2023-04-04T02:44:47;-1.40;99.90
68051;DHT22;54839;51.364;7.246;2023-04-04T02:47:12;-1.50;99.90
68051;DHT22;54839;51.364;7.246;2023-04-04T02:49:38;-1.50;99.90
68051;DHT22;54839;51.364;7.246;2023-04-04T02:52:04;-1.50;99.90
68051;DHT22;54839;51.364;7.246;2023-04-04T02:54:29;-1.50;99.90
68051;DHT22;54839;51.364;7.246;2023-04-04T02:56:55;-1.70;99.90
68051;DHT22;54839;51.364;7.246;2023-04-04T02:59:20;-1.70;99.90
68051;DHT22;54839;51.364;7.246;2023-04-04T03:01:46;-1.70;99.90
68051;DHT22;54839;51.364;7.246;2023-04-04T03:04:11;-1.70;99.90
68051;DHT22;54839;51.364;7.246;2023-04-04T03:06:38;-1.70;99.90
68051;DHT22;54839;51.364;7.246;2023-04-04T03:09:05;-1.80;99.90
68051;DHT22;54839;51.364;7.246;2023-04-04T03:11:31;-1.70;99.90
68051;DHT22;54839;51.364;7.246;2023-04-04T03:13:57;-1.80;99.90
68051;DHT22;54839;51.364;7.246;2023-04-04T03:16:22;-1.80;99.90
68051;DHT22;54839;51.364;7.246;2023-04-04T03:18:48;-1.80;99.90
68051;DHT22;54839;51.364;7.246;2023-04-04T03:21:14;-1.70;99.90
68051;DHT22;54839;51.364;7.246;2023-04-04T03:23:40;-1.70;99.90
68051;DHT22;54839;51.364;7.246;2023-04-04T03:26:07;-1.70;99.90
68051;DHT22;54839;51.364;7.246;2023-04-04T03:28:33;-1.70;99.90
68051;DHT22;54839;51.364;7.246;2023-04-04T03:31:03;-1.70;99.90
68051;DHT22;54839;51.364;7.246;2023-04-04T03:33:29;-1.70;99.90
68051;DHT22;54839;51.364;7.246;2023-04-04T03:35:55;-1.70;99.90
68051;DHT22;54839;51.364;7.246;2023-04-04T03:38:20;-1.80;99.90
68051;DHT22;54839;51.364;7.246;2023-04-04T03:40:46;-1.90;99.90
68051;DHT22;54839;51.364;7.246;2023-04-04T03:43:11;-1.90;99.90
68051;DHT22;54839;51.364;7.246;2023-04-04T03:45:37;-2.00;99.90
68051;DHT22;54839;51.364;7.246;2023-04-04T03:48:02;-1.90;99.90
68051;DHT22;54839;51.364;7.246;2023-04-04T03:50:28;-2.00;99.90
68051;DHT22;54839;51.364;7.246;2023-04-04T03:52:54;-1.90;99.90
68051;DHT22;54839;51.364;7.246;2023-04-04T03:55:22;-1.90;99.90
68051;DHT22;54839;51.364;7.246;2023-04-04T03:57:48;-1.90;99.90
68051;DHT22;54839;51.364;7.246;2023-04-04T04:00:13;-2.00;99.90
68051;DHT22;54839;51.364;7.246;2023-04-04T04:02:39;-2.10;99.90
68051;DHT22;54839;51.364;7.246;2023-04-04T04:05:05;-2.00;99.90
68051;DHT22;54839;51.364;7.246;2023-04-04T04:07:30;-2.10;99.90
68051;DHT22;54839;51.364;7.246;2023-04-04T04:09:56;-2.20;99.90
68051;DHT22;54839;51.364;7.246;2023-04-04T04:12:22;-2.20;99.90
68051;DHT22;54839;51.364;7.246;2023-04-04T04:14:48;-2.20;99.90
68051;DHT22;54839;51.364;7.246;2023-04-04T04:17:13;-2.20;99.90
68051;DHT22;54839;51.364;7.246;2023-04-04T04:19:39;-2.30;99.90
68051;DHT22;54839;51.364;7.246;2023-04-04T04:22:05;-2.20;99.90
68051;DHT22;54839;51.364;7.246;2023-04-04T04:24:30;-2.20;99.90
68051;DHT22;54839;51.364;7.246;2023-04-04T04:26:56;-2.30;99.90
68051;DHT22;54839;51.364;7.246;2023-04-04T04:29:22;-2.30;99.90
68051;DHT22;54839;51.364;7.246;2023-04-04T04:31:47;-2.30;99.90
68051;DHT22;54839;51.364;7.246;2023-04-04T04:34:13;-2.30;99.90
68051;DHT22;54839;51.364;7.246;2023-04-04T04:36:38;-2.30;99.90
68051;DHT22;54839;51.364;7.246;2023-04-04T04:39:04;-2.40;99.90
68051;DHT22;54839;51.364;7.246;2023-04-04T04:41:29;-2.40;99.90
68051;DHT22;54839;51.364;7.246;2023-04-04T04:43:55;-2.30;99.90
68051;DHT22;54839;51.364;7.246;2023-04-04T04:46:21;-2.30;99.90
68051;DHT22;54839;51.364;7.246;2023-04-04T04:48:47;-2.30;99.90
68051;DHT22;54839;51.364;7.246;2023-04-04T04:51:12;-2.40;99.90
68051;DHT22;54839;51.364;7.246;2023-04-04T04:53:39;-2.40;99.90
68051;DHT22;54839;51.364;7.246;2023-04-04T04:56:05;-2.40;99.90
68051;DHT22;54839;51.364;7.246;2023-04-04T04:58:31;-2.40;99.90
68051;DHT22;54839;51.364;7.246;2023-04-04T05:00:57;-2.40;99.90
68051;DHT22;54839;51.364;7.246;2023-04-04T05:03:23;-2.40;99.90
68051;DHT22;54839;51.364;7.246;2023-04-04T05:05:49;-2.40;99.90
68051;DHT22;54839;51.364;7.246;2023-04-04T05:08:14;-2.40;99.90
68051;DHT22;54839;51.364;7.246;2023-04-04T05:10:40;-2.40;99.90
68051;DHT22;54839;51.364;7.246;2023-04-04T05:13:06;-2.40;99.90
68051;DHT22;54839;51.364;7.246;2023-04-04T05:15:32;-2.40;99.90
68051;DHT22;54839;51.364;7.246;2023-04-04T05:17:57;-2.40;99.90
68051;DHT22;54839;51.364;7.246;2023-04-04T05:20:23;-2.40;99.90
68051;DHT22;54839;51.364;7.246;2023-04-04T05:22:49;-2.50;99.90
68051;DHT22;54839;51.364;7.246;2023-04-04T05:25:15;-2.50;99.90
68051;DHT22;54839;51.364;7.246;2023-04-04T05:27:40;-2.40;99.90
68051;DHT22;54839;51.364;7.246;2023-04-04T05:30:07;-2.30;99.90
68051;DHT22;54839;51.364;7.246;2023-04-04T05:32:33;-2.30;99.90
68051;DHT22;54839;51.364;7.246;2023-04-04T05:34:59;-2.30;99.90
68051;DHT22;54839;51.364;7.246;2023-04-04T05:37:25;-2.30;99.90
68051;DHT22;54839;51.364;7.246;2023-04-04T05:39:50;-2.30;99.90
68051;DHT22;54839;51.364;7.246;2023-04-04T05:42:16;-2.20;99.90
68051;DHT22;54839;51.364;7.246;2023-04-04T05:44:42;-2.20;99.90
68051;DHT22;54839;51.364;7.246;2023-04-04T05:47:08;-2.20;99.90
68051;DHT22;54839;51.364;7.246;2023-04-04T05:49:33;-2.10;99.90
68051;DHT22;54839;51.364;7.246;2023-04-04T05:51:59;-2.00;99.90
68051;DHT22;54839;51.364;7.246;2023-04-04T05:54:24;-1.90;99.90
68051;DHT22;54839;51.364;7.246;2023-04-04T05:56:50;-1.80;99.90
68051;DHT22;54839;51.364;7.246;2023-04-04T05:59:16;-1.70;99.90
68051;DHT22;54839;51.364;7.246;2023-04-04T06:01:42;-1.70;99.90
68051;DHT22;54839;51.364;7.246;2023-04-04T06:04:07;-1.70;99.90
68051;DHT22;54839;51.364;7.246;2023-04-04T06:06:33;-1.70;99.90
68051;DHT22;54839;51.364;7.246;2023-04-04T06:08:59;-1.60;99.90
68051;DHT22;54839;51.364;7.246;2023-04-04T06:11:24;-1.50;99.90
68051;DHT22;54839;51.364;7.246;2023-04-04T06:13:50;-1.50;99.90
68051;DHT22;54839;51.364;7.246;2023-04-04T06:16:17;-1.40;99.90
68051;DHT22;54839;51.364;7.246;2023-04-04T06:18:43;-1.30;99.90
68051;DHT22;54839;51.364;7.246;2023-04-04T06:21:08;-1.10;99.90
68051;DHT22;54839;51.364;7.246;2023-04-04T06:23:34;-1.10;99.90
68051;DHT22;54839;51.364;7.246;2023-04-04T06:26:02;-1.00;99.90
68051;DHT22;54839;51.364;7.246;2023-04-04T06:28:27;-0.90;99.90
68051;DHT22;54839;51.364;7.246;2023-04-04T06:30:53;-0.80;99.90
68051;DHT22;54839;51.364;7.246;2023-04-04T06:33:19;-0.70;99.90
68051;DHT22;54839;51.364;7.246;2023-04-04T06:35:45;-0.70;99.90
68051;DHT22;54839;51.364;7.246;2023-04-04T06:38:10;-0.70;99.90
68051;DHT22;54839;51.364;7.246;2023-04-04T06:40:36;-0.70;99.90
68051;DHT22;54839;51.364;7.246;2023-04-04T06:43:01;-0.60;99.90
68051;DHT22;54839;51.364;7.246;2023-04-04T06:45:27;-0.60;99.90
68051;DHT22;54839;51.364;7.246;2023-04-04T06:47:54;-0.50;99.90
68051;DHT22;54839;51.364;7.246;2023-04-04T06:50:21;-0.30;99.90
68051;DHT22;54839;51.364;7.246;2023-04-04T06:52:47;-0.20;99.90
68051;DHT22;54839;51.364;7.246;2023-04-04T06:55:13;-0.10;99.90
68051;DHT22;54839;51.364;7.246;2023-04-04T06:57:39;-0.10;99.90
68051;DHT22;54839;51.364;7.246;2023-04-04T07:00:05;0.00;99.90
68051;DHT22;54839;51.364;7.246;2023-04-04T07:02:31;0.30;99.90
68051;DHT22;54839;51.364;7.246;2023-04-04T07:04:57;0.20;99.90
68051;DHT22;54839;51.364;7.246;2023-04-04T07:07:22;0.50;99.90
68051;DHT22;54839;51.364;7.246;2023-04-04T07:09:49;0.40;99.90
68051;DHT22;54839;51.364;7.246;2023-04-04T07:12:15;0.60;99.90
68051;DHT22;54839;51.364;7.246;2023-04-04T07:14:40;0.60;99.90
68051;DHT22;54839;51.364;7.246;2023-04-04T07:17:07;0.70;99.90
68051;DHT22;54839;51.364;7.246;2023-04-04T07:19:32;0.80;99.90
68051;DHT22;54839;51.364;7.246;2023-04-04T07:21:58;0.80;99.90
68051;DHT22;54839;51.364;7.246;2023-04-04T07:24:23;0.70;99.90
68051;DHT22;54839;51.364;7.246;2023-04-04T07:26:49;0.70;99.90
68051;DHT22;54839;51.364;7.246;2023-04-04T07:29:15;1.10;99.90
68051;DHT22;54839;51.364;7.246;2023-04-04T07:31:40;1.10;99.90
68051;DHT22;54839;51.364;7.246;2023-04-04T07:34:06;1.30;99.90
68051;DHT22;54839;51.364;7.246;2023-04-04T07:36:32;1.50;99.90
68051;DHT22;54839;51.364;7.246;2023-04-04T07:38:58;1.70;99.90
68051;DHT22;54839;51.364;7.246;2023-04-04T07:41:23;1.70;99.90
68051;DHT22;54839;51.364;7.246;2023-04-04T07:43:50;1.90;99.90
68051;DHT22;54839;51.364;7.246;2023-04-04T07:46:16;2.00;99.90
68051;DHT22;54839;51.364;7.246;2023-04-04T07:48:42;2.00;99.90
68051;DHT22;54839;51.364;7.246;2023-04-04T07:51:08;2.10;99.90
68051;DHT22;54839;51.364;7.246;2023-04-04T07:53:34;2.20;99.90
68051;DHT22;54839;51.364;7.246;2023-04-04T07:55:59;2.40;99.90
68051;DHT22;54839;51.364;7.246;2023-04-04T07:58:33;2.40;99.90
68051;DHT22;54839;51.364;7.246;2023-04-04T08:01:02;2.50;99.90
68051;DHT22;54839;51.364;7.246;2023-04-04T08:03:28;2.70;99.90
68051;DHT22;54839;51.364;7.246;2023-04-04T08:05:54;2.70;99.90
68051;DHT22;54839;51.364;7.246;2023-04-04T08:08:20;3.00;99.90
68051;DHT22;54839;51.364;7.246;2023-04-04T08:10:45;3.00;99.90
68051;DHT22;54839;51.364;7.246;2023-04-04T08:13:11;3.20;99.90
68051;DHT22;54839;51.364;7.246;2023-04-04T08:15:38;3.30;99.90
68051;DHT22;54839;51.364;7.246;2023-04-04T08:18:03;3.40;99.90
68051;DHT22;54839;51.364;7.246;2023-04-04T08:20:29;3.50;99.90
68051;DHT22;54839;51.364;7.246;2023-04-04T08:22:55;3.50;99.90
68051;DHT22;54839;51.364;7.246;2023-04-04T08:25:22;3.50;99.90
68051;DHT22;54839;51.364;7.246;2023-04-04T08:27:47;3.70;99.90
68051;DHT22;54839;51.364;7.246;2023-04-04T08:30:13;3.70;99.90
68051;DHT22;54839;51.364;7.246;2023-04-04T08:32:40;3.80;99.90
68051;DHT22;54839;51.364;7.246;2023-04-04T08:35:07;3.80;99.90
68051;DHT22;54839;51.364;7.246;2023-04-04T08:37:33;3.90;99.90
68051;DHT22;54839;51.364;7.246;2023-04-04T08:40:00;3.90;99.90
68051;DHT22;54839;51.364;7.246;2023-04-04T08:42:27;3.90;99.90
68051;DHT22;54839;51.364;7.246;2023-04-04T08:44:53;3.80;99.90
68051;DHT22;54839;51.364;7.246;2023-04-04T08:47:20;3.90;99.90
68051;DHT22;54839;51.364;7.246;2023-04-04T08:49:48;4.00;99.90
68051;DHT22;54839;51.364;7.246;2023-04-04T08:52:17;4.10;99.90
68051;DHT22;54839;51.364;7.246;2023-04-04T08:54:45;4.10;99.90
68051;DHT22;54839;51.364;7.246;2023-04-04T08:57:11;4.10;99.90
68051;DHT22;54839;51.364;7.246;2023-04-04T08:59:38;4.10;99.90
68051;DHT22;54839;51.364;7.246;2023-04-04T09:02:44;4.10;99.90
68051;DHT22;54839;51.364;7.246;2023-04-04T09:05:11;4.10;99.90
68051;DHT22;54839;51.364;7.246;2023-04-04T09:07:38;4.30;99.90
68051;DHT22;54839;51.364;7.246;2023-04-04T09:10:07;4.50;99.90
68051;DHT22;54839;51.364;7.246;2023-04-04T09:12:35;4.50;99.90
68051;DHT22;54839;51.364;7.246;2023-04-04T09:15:01;4.40;99.90
68051;DHT22;54839;51.364;7.246;2023-04-04T09:17:28;4.40;99.90
68051;DHT22;54839;51.364;7.246;2023-04-04T09:19:54;4.50;99.90
68051;DHT22;54839;51.364;7.246;2023-04-04T09:22:19;4.60;99.90
68051;DHT22;54839;51.364;7.246;2023-04-04T09:24:45;4.60;99.90
68051;DHT22;54839;51.364;7.246;2023-04-04T09:27:14;4.70;99.90
68051;DHT22;54839;51.364;7.246;2023-04-04T09:29:40;4.80;99.90
68051;DHT22;54839;51.364;7.246;2023-04-04T09:32:13;4.80;99.90
68051;DHT22;54839;51.364;7.246;2023-04-04T09:34:39;4.90;99.90
68051;DHT22;54839;51.364;7.246;2023-04-04T09:37:05;5.00;99.90
68051;DHT22;54839;51.364;7.246;2023-04-04T09:39:32;4.90;99.90
68051;DHT22;54839;51.364;7.246;2023-04-04T09:41:59;4.80;99.90
68051;DHT22;54839;51.364;7.246;2023-04-04T09:44:26;4.80;99.90
68051;DHT22;54839;51.364;7.246;2023-04-04T09:47:06;4.90;99.90
68051;DHT22;54839;51.364;7.246;2023-04-04T09:49:47;5.00;99.90
68051;DHT22;54839;51.364;7.246;2023-04-04T09:52:18;4.90;99.90
68051;DHT22;54839;51.364;7.246;2023-04-04T09:55:03;4.90;99.90
68051;DHT22;54839;51.364;7.246;2023-04-04T09:57:30;5.10;99.90
68051;DHT22;54839;51.364;7.246;2023-04-04T09:59:59;5.20;99.90
68051;DHT22;54839;51.364;7.246;2023-04-04T10:02:26;5.10;99.90
68051;DHT22;54839;51.364;7.246;2023-04-04T10:04:53;5.20;99.90
68051;DHT22;54839;51.364;7.246;2023-04-04T10:07:18;5.30;99.90
68051;DHT22;54839;51.364;7.246;2023-04-04T10:09:47;5.60;99.90
68051;DHT22;54839;51.364;7.246;2023-04-04T10:12:15;5.60;99.90
68051;DHT22;54839;51.364;7.246;2023-04-04T10:14:41;5.80;99.90
68051;DHT22;54839;51.364;7.246;2023-04-04T10:17:08;5.80;99.90
68051;DHT22;54839;51.364;7.246;2023-04-04T10:19:36;5.50;99.90
68051;DHT22;54839;51.364;7.246;2023-04-04T10:22:03;5.60;99.90
68051;DHT22;54839;51.364;7.246;2023-04-04T10:24:29;5.60;99.90
68051;DHT22;54839;51.364;7.246;2023-04-04T10:26:55;5.50;99.90
68051;DHT22;54839;51.364;7.246;2023-04-04T10:29:21;5.80;99.90
68051;DHT22;54839;51.364;7.246;2023-04-04T10:31:49;5.80;99.90
68051;DHT22;54839;51.364;7.246;2023-04-04T10:34:32;5.90;99.90
68051;DHT22;54839;51.364;7.246;2023-04-04T10:37:07;5.90;99.90
68051;DHT22;54839;51.364;7.246;2023-04-04T10:39:42;6.00;99.90
68051;DHT22;54839;51.364;7.246;2023-04-04T10:42:09;6.10;99.90
68051;DHT22;54839;51.364;7.246;2023-04-04T10:44:38;6.20;99.90
68051;DHT22;54839;51.364;7.246;2023-04-04T10:47:19;6.40;99.90
68051;DHT22;54839;51.364;7.246;2023-04-04T10:49:49;6.60;99.90
68051;DHT22;54839;51.364;7.246;2023-04-04T10:52:23;6.60;99.90
68051;DHT22;54839;51.364;7.246;2023-04-04T10:54:53;6.60;99.90
68051;DHT22;54839;51.364;7.246;2023-04-04T10:57:19;6.50;99.90
68051;DHT22;54839;51.364;7.246;2023-04-04T11:02:47;6.70;99.90
68051;DHT22;54839;51.364;7.246;2023-04-04T11:05:31;6.50;99.90
68051;DHT22;54839;51.364;7.246;2023-04-04T11:08:04;6.30;99.90
68051;DHT22;54839;51.364;7.246;2023-04-04T11:10:40;6.40;99.90
68051;DHT22;54839;51.364;7.246;2023-04-04T11:13:12;6.50;99.90
68051;DHT22;54839;51.364;7.246;2023-04-04T11:15:54;6.80;99.90
68051;DHT22;54839;51.364;7.246;2023-04-04T11:18:22;6.70;99.60
68051;DHT22;54839;51.364;7.246;2023-04-04T11:21:09;6.60;98.20
68051;DHT22;54839;51.364;7.246;2023-04-04T11:28:58;6.80;99.50
68051;DHT22;54839;51.364;7.246;2023-04-04T11:31:28;6.80;99.10
68051;DHT22;54839;51.364;7.246;2023-04-04T11:34:04;7.00;99.90
68051;DHT22;54839;51.364;7.246;2023-04-04T11:39:28;6.90;99.90
68051;DHT22;54839;51.364;7.246;2023-04-04T11:44:23;6.80;98.70
68051;DHT22;54839;51.364;7.246;2023-04-04T11:49:38;6.90;97.50
68051;DHT22;54839;51.364;7.246;2023-04-04T11:52:15;7.00;97.10
68051;DHT22;54839;51.364;7.246;2023-04-04T11:54:43;7.00;96.90
68051;DHT22;54839;51.364;7.246;2023-04-04T11:57:15;7.10;96.00
68051;DHT22;54839;51.364;7.246;2023-04-04T11:59:46;7.30;96.50
68051;DHT22;54839;51.364;7.246;2023-04-04T12:02:14;7.50;97.20
68051;DHT22;54839;51.364;7.246;2023-04-04T12:04:41;7.70;95.70
68051;DHT22;54839;51.364;7.246;2023-04-04T12:07:10;7.50;94.60
68051;DHT22;54839;51.364;7.246;2023-04-04T12:09:37;7.40;93.30
68051;DHT22;54839;51.364;7.246;2023-04-04T12:12:02;7.60;94.70
68051;DHT22;54839;51.364;7.246;2023-04-04T12:14:31;7.70;93.80
68051;DHT22;54839;51.364;7.246;2023-04-04T12:16:57;7.80;93.90
68051;DHT22;54839;51.364;7.246;2023-04-04T12:19:24;7.90;93.30
68051;DHT22;54839;51.364;7.246;2023-04-04T12:21:51;8.00;92.50
68051;DHT22;54839;51.364;7.246;2023-04-04T12:24:18;8.30;91.60
68051;DHT22;54839;51.364;7.246;2023-04-04T12:26:46;8.20;90.30
68051;DHT22;54839;51.364;7.246;2023-04-04T12:29:14;8.60;90.20
68051;DHT22;54839;51.364;7.246;2023-04-04T12:31:42;8.80;89.40
68051;DHT22;54839;51.364;7.246;2023-04-04T12:34:27;9.10;89.90
68051;DHT22;54839;51.364;7.246;2023-04-04T12:36:54;9.80;87.00
68051;DHT22;54839;51.364;7.246;2023-04-04T12:39:24;9.70;85.10
68051;DHT22;54839;51.364;7.246;2023-04-04T12:42:02;9.80;84.40
68051;DHT22;54839;51.364;7.246;2023-04-04T12:44:37;9.90;80.10
68051;DHT22;54839;51.364;7.246;2023-04-04T12:47:08;9.70;79.60
68051;DHT22;54839;51.364;7.246;2023-04-04T12:49:41;9.80;80.80
68051;DHT22;54839;51.364;7.246;2023-04-04T12:52:22;10.10;79.00
68051;DHT22;54839;51.364;7.246;2023-04-04T12:54:51;11.40;74.60
68051;DHT22;54839;51.364;7.246;2023-04-04T12:57:23;12.60;67.50
68051;DHT22;54839;51.364;7.246;2023-04-04T12:59:49;13.90;62.50
68051;DHT22;54839;51.364;7.246;2023-04-04T13:02:16;15.00;62.60
68051;DHT22;54839;51.364;7.246;2023-04-04T13:05:02;14.50;58.90
68051;DHT22;54839;51.364;7.246;2023-04-04T13:07:30;16.20;56.90
68051;DHT22;54839;51.364;7.246;2023-04-04T13:10:01;16.40;56.40
68051;DHT22;54839;51.364;7.246;2023-04-04T13:15:46;17.60;54.80
68051;DHT22;54839;51.364;7.246;2023-04-04T13:18:20;18.50;52.60
68051;DHT22;54839;51.364;7.246;2023-04-04T13:20:47;18.60;49.80
68051;DHT22;54839;51.364;7.246;2023-04-04T13:23:14;18.50;49.50
68051;DHT22;54839;51.364;7.246;2023-04-04T13:25:40;18.30;48.70
68051;DHT22;54839;51.364;7.246;2023-04-04T13:28:05;19.00;48.30
68051;DHT22;54839;51.364;7.246;2023-04-04T13:30:31;18.80;46.50
68051;DHT22;54839;51.364;7.246;2023-04-04T13:32:57;19.40;45.40
68051;DHT22;54839;51.364;7.246;2023-04-04T13:35:23;21.20;45.90
68051;DHT22;54839;51.364;7.246;2023-04-04T13:37:48;20.20;44.80
68051;DHT22;54839;51.364;7.246;2023-04-04T13:40:14;20.20;46.30
68051;DHT22;54839;51.364;7.246;2023-04-04T13:42:39;20.40;44.00
68051;DHT22;54839;51.364;7.246;2023-04-04T13:45:06;20.90;45.40
68051;DHT22;54839;51.364;7.246;2023-04-04T13:47:31;23.20;45.70
68051;DHT22;54839;51.364;7.246;2023-04-04T13:49:57;23.90;41.20
68051;DHT22;54839;51.364;7.246;2023-04-04T13:52:23;24.70;42.20
68051;DHT22;54839;51.364;7.246;2023-04-04T13:54:49;24.10;40.80
68051;DHT22;54839;51.364;7.246;2023-04-04T13:57:14;23.50;40.70
68051;DHT22;54839;51.364;7.246;2023-04-04T13:59:40;22.30;39.20
68051;DHT22;54839;51.364;7.246;2023-04-04T14:02:06;21.30;38.90
68051;DHT22;54839;51.364;7.246;2023-04-04T14:04:31;22.90;39.80
68051;DHT22;54839;51.364;7.246;2023-04-04T14:06:57;23.10;39.90
68051;DHT22;54839;51.364;7.246;2023-04-04T14:09:22;21.40;39.70
68051;DHT22;54839;51.364;7.246;2023-04-04T14:11:48;19.10;40.40
68051;DHT22;54839;51.364;7.246;2023-04-04T14:14:14;16.90;42.00
68051;DHT22;54839;51.364;7.246;2023-04-04T14:16:39;18.10;42.10
68051;DHT22;54839;51.364;7.246;2023-04-04T14:19:05;20.40;41.50
68051;DHT22;54839;51.364;7.246;2023-04-04T14:21:31;20.40;41.10
68051;DHT22;54839;51.364;7.246;2023-04-04T14:23:56;20.60;40.30
68051;DHT22;54839;51.364;7.246;2023-04-04T14:26:22;21.10;39.50
68051;DHT22;54839;51.364;7.246;2023-04-04T14:28:47;21.80;39.50
68051;DHT22;54839;51.364;7.246;2023-04-04T14:31:13;21.00;38.40
68051;DHT22;54839;51.364;7.246;2023-04-04T14:33:39;21.00;38.80
68051;DHT22;54839;51.364;7.246;2023-04-04T14:36:04;22.10;39.90
68051;DHT22;54839;51.364;7.246;2023-04-04T14:38:30;23.20;38.60
68051;DHT22;54839;51.364;7.246;2023-04-04T14:40:57;23.20;39.00
68051;DHT22;54839;51.364;7.246;2023-04-04T14:43:23;22.60;38.00
68051;DHT22;54839;51.364;7.246;2023-04-04T14:45:48;21.70;37.40
68051;DHT22;54839;51.364;7.246;2023-04-04T14:48:14;21.20;38.10
68051;DHT22;54839;51.364;7.246;2023-04-04T14:50:39;21.60;37.70
68051;DHT22;54839;51.364;7.246;2023-04-04T14:53:06;21.20;37.70
68051;DHT22;54839;51.364;7.246;2023-04-04T14:55:32;21.80;36.80
68051;DHT22;54839;51.364;7.246;2023-04-04T14:57:58;21.60;36.30
68051;DHT22;54839;51.364;7.246;2023-04-04T15:00:23;20.30;36.80
68051;DHT22;54839;51.364;7.246;2023-04-04T15:02:49;19.00;37.60
68051;DHT22;54839;51.364;7.246;2023-04-04T15:05:15;20.00;38.50
68051;DHT22;54839;51.364;7.246;2023-04-04T15:07:41;19.70;38.70
68051;DHT22;54839;51.364;7.246;2023-04-04T15:10:07;19.40;39.10
68051;DHT22;54839;51.364;7.246;2023-04-04T15:12:33;19.40;39.60
68051;DHT22;54839;51.364;7.246;2023-04-04T15:14:59;20.50;39.30
68051;DHT22;54839;51.364;7.246;2023-04-04T15:17:24;22.50;39.40
68051;DHT22;54839;51.364;7.246;2023-04-04T15:19:50;24.40;37.50
68051;DHT22;54839;51.364;7.246;2023-04-04T15:22:15;23.70;35.70
68051;DHT22;54839;51.364;7.246;2023-04-04T15:24:41;22.90;35.60
68051;DHT22;54839;51.364;7.246;2023-04-04T15:27:06;24.20;35.20
68051;DHT22;54839;51.364;7.246;2023-04-04T15:29:32;22.90;34.70
68051;DHT22;54839;51.364;7.246;2023-04-04T15:31:58;21.80;35.10
68051;DHT22;54839;51.364;7.246;2023-04-04T15:34:23;22.20;36.40
68051;DHT22;54839;51.364;7.246;2023-04-04T15:36:49;22.40;35.40
68051;DHT22;54839;51.364;7.246;2023-04-04T15:39:16;22.70;35.50
68051;DHT22;54839;51.364;7.246;2023-04-04T15:41:42;22.90;35.40
68051;DHT22;54839;51.364;7.246;2023-04-04T15:44:07;22.80;35.10
68051;DHT22;54839;51.364;7.246;2023-04-04T15:46:33;23.30;35.30
68051;DHT22;54839;51.364;7.246;2023-04-04T15:48:58;23.30;34.10
68051;DHT22;54839;51.364;7.246;2023-04-04T15:51:24;24.00;34.00
68051;DHT22;54839;51.364;7.246;2023-04-04T15:53:53;22.10;32.70
68051;DHT22;54839;51.364;7.246;2023-04-04T15:56:19;23.00;34.60